sensor_id;sensor_type;location;lat;lon;timestamp;temperature;humidity
33994;DHT22;20673;48.980;8.138;2023-06-10T00:01:04;17.60;99.90
33994;DHT22;20673;48.980;8.138;2023-06-10T00:03:30;17.70;99.90
33994;DHT22;20673;48.980;8.138;2023-06-10T00:05:56;17.60;99.90
33994;DHT22;20673;48.980;8.138;2023-06-10T00:08:22;17.70;99.90
33994;DHT22;20673;48.980;8.138;2023-06-10T00:10:48;17.80;99.90
33994;DHT22;20673;48.980;8.138;2023-06-10T00:13:15;17.70;99.90
33994;DHT22;20673;48.980;8.138;2023-06-10T00:15:42;17.80;99.90
33994;DHT22;20673;48.980;8.138;2023-06-10T00:18:08;17.80;99.90
33994;DHT22;20673;48.980;8.138;2023-06-10T00:20:35;17.80;99.90
33994;DHT22;20673;48.980;8.138;2023-06-10T00:23:03;17.80;99.90
33994;DHT22;20673;48.980;8.138;2023-06-10T00:25:31;17.80;99.90
33994;DHT22;20673;48.980;8.138;2023-06-10T00:27:58;17.80;99.90
33994;DHT22;20673;48.980;8.138;2023-06-10T00:30:24;17.80;99.90
33994;DHT22;20673;48.980;8.138;2023-06-10T00:32:50;17.80;99.90
33994;DHT22;20673;48.980;8.138;2023-06-10T00:35:17;17.80;99.90
33994;DHT22;20673;48.980;8.138;2023-06-10T00:37:43;17.80;99.90
33994;DHT22;20673;48.980;8.138;2023-06-10T00:40:10;17.80;99.90
33994;DHT22;20673;48.980;8.138;2023-06-10T00:42:37;17.70;99.90
33994;DHT22;20673;48.980;8.138;2023-06-10T00:45:04;17.60;99.90
33994;DHT22;20673;48.980;8.138;2023-06-10T00:47:31;17.60;99.90
33994;DHT22;20673;48.980;8.138;2023-06-10T00:49:57;17.50;99.90
33994;DHT22;20673;48.980;8.138;2023-06-10T00:52:27;17.50;99.90
33994;DHT22;20673;48.980;8.138;2023-06-10T00:54:55;17.40;99.90
33994;DHT22;20673;48.980;8.138;2023-06-10T00:57:21;17.40;99.90
33994;DHT22;20673;48.980;8.138;2023-06-10T00:59:48;17.40;99.90
33994;DHT22;20673;48.980;8.138;2023-06-10T01:02:15;17.30;99.90
33994;DHT22;20673;48.980;8.138;2023-06-10T01:04:42;17.30;99.90
33994;DHT22;20673;48.980;8.138;2023-06-10T01:07:30;17.30;99.90
33994;DHT22;20673;48.980;8.138;2023-06-10T01:10:20;17.20;99.90
33994;DHT22;20673;48.980;8.138;2023-06-10T01:13:06;17.10;99.90
33994;DHT22;20673;48.980;8.138;2023-06-10T01:15:38;16.80;99.90
33994;DHT22;20673;48.980;8.138;2023-06-10T01:18:06;16.70;99.90
33994;DHT22;20673;48.980;8.138;2023-06-10T01:20:37;16.60;99.90
33994;DHT22;20673;48.980;8.138;2023-06-10T01:23:06;16.50;99.90
33994;DHT22;20673;48.980;8.138;2023-06-10T01:25:40;16.40;99.90
33994;DHT22;20673;48.980;8.138;2023-06-10T01:28:16;16.30;99.90
33994;DHT22;20673;48.980;8.138;2023-06-10T01:31:27;16.30;99.90
33994;DHT22;20673;48.980;8.138;2023-06-10T01:34:13;16.40;99.90
33994;DHT22;20673;48.980;8.138;2023-06-10T01:36:47;16.30;99.90
33994;DHT22;20673;48.980;8.138;2023-06-10T01:39:15;16.30;99.90
33994;DHT22;20673;48.980;8.138;2023-06-10T01:41:43;16.20;99.90
33994;DHT22;20673;48.980;8.138;2023-06-10T01:44:09;16.30;99.90
33994;DHT22;20673;48.980;8.138;2023-06-10T01:46:36;16.30;99.90
33994;DHT22;20673;48.980;8.138;2023-06-10T01:49:02;16.20;99.90
33994;DHT22;20673;48.980;8.138;2023-06-10T01:51:28;16.10;99.90
33994;DHT22;20673;48.980;8.138;2023-06-10T01:53:56;16.10;99.90
33994;DHT22;20673;48.980;8.138;2023-06-10T01:56:22;16.10;99.90
33994;DHT22;20673;48.980;8.138;2023-06-10T01:58:48;16.10;99.90
33994;DHT22;20673;48.980;8.138;2023-06-10T02:01:15;16.10;99.90
33994;DHT22;20673;48.980;8.138;2023-06-10T02:03:41;16.10;99.90
33994;DHT22;20673;48.980;8.138;2023-06-10T02:06:07;16.30;99.90
33994;DHT22;20673;48.980;8.138;2023-06-10T02:08:33;16.30;99.90
33994;DHT22;20673;48.980;8.138;2023-06-10T02:11:00;16.40;99.90
33994;DHT22;20673;48.980;8.138;2023-06-10T02:13:26;16.50;99.90
33994;DHT22;20673;48.980;8.138;2023-06-10T02:15:52;16.50;99.90
33994;DHT22;20673;48.980;8.138;2023-06-10T02:18:20;16.60;99.90
33994;DHT22;20673;48.980;8.138;2023-06-10T02:20:46;16.50;99.90
33994;DHT22;20673;48.980;8.138;2023-06-10T02:23:12;16.60;99.90
33994;DHT22;20673;48.980;8.138;2023-06-10T02:25:38;16.60;99.90
33994;DHT22;20673;48.980;8.138;2023-06-10T02:28:05;16.60;99.90
33994;DHT22;20673;48.980;8.138;2023-06-10T02:30:31;16.60;99.90
33994;DHT22;20673;48.980;8.138;2023-06-10T02:32:57;16.60;99.90
33994;DHT22;20673;48.980;8.138;2023-06-10T02:35:24;16.60;99.90
33994;DHT22;20673;48.980;8.138;2023-06-10T02:37:50;16.60;99.90
33994;DHT22;20673;48.980;8.138;2023-06-10T02:40:17;16.60;99.90
33994;DHT22;20673;48.980;8.138;2023-06-10T02:42:43;16.60;99.90
33994;DHT22;20673;48.980;8.138;2023-06-10T02:45:09;16.60;99.90
33994;DHT22;20673;48.980;8.138;2023-06-10T02:47:37;16.60;99.90
33994;DHT22;20673;48.980;8.138;2023-06-10T02:50:06;16.60;99.90
33994;DHT22;20673;48.980;8.138;2023-06-10T02:52:32;16.60;99.90
33994;DHT22;20673;48.980;8.138;2023-06-10T02:54:58;16.60;99.90
33994;DHT22;20673;48.980;8.138;2023-06-10T02:57:25;16.60;99.90
33994;DHT22;20673;48.980;8.138;2023-06-10T02:59:51;16.50;99.90
33994;DHT22;20673;48.980;8.138;2023-06-10T03:02:19;16.50;99.90
33994;DHT22;20673;48.980;8.138;2023-06-10T03:04:45;16.50;99.90
33994;DHT22;20673;48.980;8.138;2023-06-10T03:07:11;16.40;99.90
33994;DHT22;20673;48.980;8.138;2023-06-10T03:09:38;16.30;99.90
33994;DHT22;20673;48.980;8.138;2023-06-10T03:12:04;16.30;99.90
33994;DHT22;20673;48.980;8.138;2023-06-10T03:14:31;16.20;99.90
33994;DHT22;20673;48.980;8.138;2023-06-10T03:16:57;16.20;99.90
33994;DHT22;20673;48.980;8.138;2023-06-10T03:19:25;16.10;99.90
33994;DHT22;20673;48.980;8.138;2023-06-10T03:22:12;16.10;99.90
33994;DHT22;20673;48.980;8.138;2023-06-10T03:24:37;16.10;99.90
33994;DHT22;20673;48.980;8.138;2023-06-10T03:27:10;16.20;99.90
33994;DHT22;20673;48.980;8.138;2023-06-10T03:29:35;16.20;99.90
33994;DHT22;20673;48.980;8.138;2023-06-10T03:32:01;16.20;99.90
33994;DHT22;20673;48.980;8.138;2023-06-10T03:34:28;16.20;99.90
33994;DHT22;20673;48.980;8.138;2023-06-10T03:36:56;16.20;99.90
33994;DHT22;20673;48.980;8.138;2023-06-10T03:39:22;16.20;99.90
33994;DHT22;20673;48.980;8.138;2023-06-10T03:41:52;16.20;99.90
33994;DHT22;20673;48.980;8.138;2023-06-10T03:44:18;16.20;99.90
33994;DHT22;20673;48.980;8.138;2023-06-10T03:46:44;16.20;99.90
33994;DHT22;20673;48.980;8.138;2023-06-10T03:49:11;16.20;99.90
33994;DHT22;20673;48.980;8.138;2023-06-10T03:51:37;16.30;99.90
33994;DHT22;20673;48.980;8.138;2023-06-10T03:54:04;16.40;99.90
33994;DHT22;20673;48.980;8.138;2023-06-10T03:56:31;16.50;99.90
33994;DHT22;20673;48.980;8.138;2023-06-10T03:58:57;16.50;99.90
33994;DHT22;20673;48.980;8.138;2023-06-10T04:01:23;16.50;99.90
33994;DHT22;20673;48.980;8.138;2023-06-10T04:03:49;16.60;99.90
33994;DHT22;20673;48.980;8.138;2023-06-10T04:06:17;16.50;99.90
33994;DHT22;20673;48.980;8.138;2023-06-10T04:08:43;16.50;99.90
33994;DHT22;20673;48.980;8.138;2023-06-10T04:11:09;16.60;99.90
33994;DHT22;20673;48.980;8.138;2023-06-10T04:13:35;16.60;99.90
33994;DHT22;20673;48.980;8.138;2023-06-10T04:16:02;16.60;99.90
33994;DHT22;20673;48.980;8.138;2023-06-10T04:18:28;16.60;99.90
33994;DHT22;20673;48.980;8.138;2023-06-10T04:20:55;16.70;99.90
33994;DHT22;20673;48.980;8.138;2023-06-10T04:23:21;16.70;99.90
33994;DHT22;20673;48.980;8.138;2023-06-10T04:25:47;16.70;99.90
33994;DHT22;20673;48.980;8.138;2023-06-10T04:28:13;16.80;99.90
33994;DHT22;20673;48.980;8.138;2023-06-10T04:30:39;16.90;99.90
33994;DHT22;20673;48.980;8.138;2023-06-10T04:33:07;17.00;99.90
33994;DHT22;20673;48.980;8.138;2023-06-10T04:35:34;16.90;99.90
33994;DHT22;20673;48.980;8.138;2023-06-10T04:38:00;17.00;99.90
33994;DHT22;20673;48.980;8.138;2023-06-10T04:40:28;17.10;99.90
33994;DHT22;20673;48.980;8.138;2023-06-10T04:42:55;17.20;99.90
33994;DHT22;20673;48.980;8.138;2023-06-10T04:45:21;17.20;99.90
33994;DHT22;20673;48.980;8.138;2023-06-10T04:47:47;17.30;99.90
33994;DHT22;20673;48.980;8.138;2023-06-10T04:50:13;17.50;99.90
33994;DHT22;20673;48.980;8.138;2023-06-10T04:52:39;17.50;99.90
33994;DHT22;20673;48.980;8.138;2023-06-10T04:55:07;17.60;99.90
33994;DHT22;20673;48.980;8.138;2023-06-10T04:57:34;17.70;99.90
33994;DHT22;20673;48.980;8.138;2023-06-10T05:00:00;17.70;99.90
33994;DHT22;20673;48.980;8.138;2023-06-10T05:02:26;17.80;99.90
33994;DHT22;20673;48.980;8.138;2023-06-10T05:04:52;17.90;99.90
33994;DHT22;20673;48.980;8.138;2023-06-10T05:07:20;17.90;99.90
33994;DHT22;20673;48.980;8.138;2023-06-10T05:09:46;18.00;99.90
33994;DHT22;20673;48.980;8.138;2023-06-10T05:12:12;18.10;99.90
33994;DHT22;20673;48.980;8.138;2023-06-10T05:14:38;18.20;99.90
33994;DHT22;20673;48.980;8.138;2023-06-10T05:17:05;18.20;99.90
33994;DHT22;20673;48.980;8.138;2023-06-10T05:19:31;18.30;99.90
33994;DHT22;20673;48.980;8.138;2023-06-10T05:21:58;18.50;99.90
33994;DHT22;20673;48.980;8.138;2023-06-10T05:24:24;18.50;99.90
33994;DHT22;20673;48.980;8.138;2023-06-10T05:26:50;18.50;99.90
33994;DHT22;20673;48.980;8.138;2023-06-10T05:29:16;18.60;99.90
33994;DHT22;20673;48.980;8.138;2023-06-10T05:31:42;18.70;99.90
33994;DHT22;20673;48.980;8.138;2023-06-10T05:34:08;18.80;99.90
33994;DHT22;20673;48.980;8.138;2023-06-10T05:36:34;18.80;99.90
33994;DHT22;20673;48.980;8.138;2023-06-10T05:39:00;18.90;99.90
33994;DHT22;20673;48.980;8.138;2023-06-10T05:41:26;19.00;99.90
33994;DHT22;20673;48.980;8.138;2023-06-10T05:43:52;19.10;99.90
33994;DHT22;20673;48.980;8.138;2023-06-10T05:46:19;19.10;99.90
33994;DHT22;20673;48.980;8.138;2023-06-10T05:48:46;19.20;99.90
33994;DHT22;20673;48.980;8.138;2023-06-10T05:51:12;19.30;99.90
33994;DHT22;20673;48.980;8.138;2023-06-10T05:53:38;19.30;99.90
33994;DHT22;20673;48.980;8.138;2023-06-10T05:56:05;19.40;99.90
33994;DHT22;20673;48.980;8.138;2023-06-10T05:58:31;19.40;99.90
33994;DHT22;20673;48.980;8.138;2023-06-10T06:00:58;19.50;99.90
33994;DHT22;20673;48.980;8.138;2023-06-10T06:03:24;19.50;99.90
33994;DHT22;20673;48.980;8.138;2023-06-10T06:05:50;19.60;99.90
33994;DHT22;20673;48.980;8.138;2023-06-10T06:08:16;19.80;99.90
33994;DHT22;20673;48.980;8.138;2023-06-10T06:10:47;19.90;99.90
33994;DHT22;20673;48.980;8.138;2023-06-10T06:13:14;19.90;99.90
33994;DHT22;20673;48.980;8.138;2023-06-10T06:15:41;20.00;99.90
33994;DHT22;20673;48.980;8.138;2023-06-10T06:18:08;20.10;99.90
33994;DHT22;20673;48.980;8.138;2023-06-10T06:20:35;20.30;99.90
33994;DHT22;20673;48.980;8.138;2023-06-10T06:23:02;20.30;99.90
33994;DHT22;20673;48.980;8.138;2023-06-10T06:25:31;20.40;99.90
33994;DHT22;20673;48.980;8.138;2023-06-10T06:27:59;20.50;99.90
33994;DHT22;20673;48.980;8.138;2023-06-10T06:30:26;20.70;99.90
33994;DHT22;20673;48.980;8.138;2023-06-10T06:32:52;20.80;99.90
33994;DHT22;20673;48.980;8.138;2023-06-10T06:35:18;20.90;99.90
33994;DHT22;20673;48.980;8.138;2023-06-10T06:37:44;21.10;99.90
33994;DHT22;20673;48.980;8.138;2023-06-10T06:40:11;21.20;99.90
33994;DHT22;20673;48.980;8.138;2023-06-10T06:42:38;21.30;99.90
33994;DHT22;20673;48.980;8.138;2023-06-10T06:45:05;21.40;99.90
33994;DHT22;20673;48.980;8.138;2023-06-10T06:47:32;21.50;99.90
33994;DHT22;20673;48.980;8.138;2023-06-10T06:49:58;21.40;99.90
33994;DHT22;20673;48.980;8.138;2023-06-10T06:52:25;21.60;99.90
33994;DHT22;20673;48.980;8.138;2023-06-10T06:54:51;21.70;99.90
33994;DHT22;20673;48.980;8.138;2023-06-10T06:57:17;21.90;99.90
33994;DHT22;20673;48.980;8.138;2023-06-10T06:59:46;22.00;99.90
33994;DHT22;20673;48.980;8.138;2023-06-10T07:02:12;22.10;99.90
33994;DHT22;20673;48.980;8.138;2023-06-10T07:04:38;22.10;99.90
33994;DHT22;20673;48.980;8.138;2023-06-10T07:07:07;22.10;99.90
33994;DHT22;20673;48.980;8.138;2023-06-10T07:09:37;22.20;99.90
33994;DHT22;20673;48.980;8.138;2023-06-10T07:12:04;22.20;99.90
33994;DHT22;20673;48.980;8.138;2023-06-10T07:14:31;22.50;99.90
33994;DHT22;20673;48.980;8.138;2023-06-10T07:16:57;22.60;99.90
33994;DHT22;20673;48.980;8.138;2023-06-10T07:19:23;22.80;99.90
33994;DHT22;20673;48.980;8.138;2023-06-10T07:21:49;23.00;99.90
33994;DHT22;20673;48.980;8.138;2023-06-10T07:24:15;23.10;99.90
33994;DHT22;20673;48.980;8.138;2023-06-10T07:26:41;23.10;99.90
33994;DHT22;20673;48.980;8.138;2023-06-10T07:29:07;23.10;99.90
33994;DHT22;20673;48.980;8.138;2023-06-10T07:31:34;23.30;99.90
33994;DHT22;20673;48.980;8.138;2023-06-10T07:34:00;23.50;99.90
33994;DHT22;20673;48.980;8.138;2023-06-10T07:36:26;23.50;99.90
33994;DHT22;20673;48.980;8.138;2023-06-10T07:38:54;23.60;99.90
33994;DHT22;20673;48.980;8.138;2023-06-10T07:41:23;23.70;99.90
33994;DHT22;20673;48.980;8.138;2023-06-10T07:43:52;23.90;99.90
33994;DHT22;20673;48.980;8.138;2023-06-10T07:46:23;24.00;99.90
33994;DHT22;20673;48.980;8.138;2023-06-10T07:48:50;24.10;99.90
33994;DHT22;20673;48.980;8.138;2023-06-10T07:51:17;24.30;99.90
33994;DHT22;20673;48.980;8.138;2023-06-10T07:53:43;24.20;99.90
33994;DHT22;20673;48.980;8.138;2023-06-10T07:56:09;24.50;99.90
33994;DHT22;20673;48.980;8.138;2023-06-10T07:58:35;24.50;99.90
33994;DHT22;20673;48.980;8.138;2023-06-10T08:01:01;24.50;99.90
33994;DHT22;20673;48.980;8.138;2023-06-10T08:03:30;24.60;99.90
33994;DHT22;20673;48.980;8.138;2023-06-10T08:05:57;24.90;99.90
33994;DHT22;20673;48.980;8.138;2023-06-10T08:08:25;24.90;99.90
33994;DHT22;20673;48.980;8.138;2023-06-10T08:10:51;25.00;99.90
33994;DHT22;20673;48.980;8.138;2023-06-10T08:13:18;25.30;99.90
33994;DHT22;20673;48.980;8.138;2023-06-10T08:15:46;25.40;99.90
33994;DHT22;20673;48.980;8.138;2023-06-10T08:18:13;25.40;99.90
33994;DHT22;20673;48.980;8.138;2023-06-10T08:20:39;25.40;99.90
33994;DHT22;20673;48.980;8.138;2023-06-10T08:23:05;25.40;99.90
33994;DHT22;20673;48.980;8.138;2023-06-10T08:25:31;25.40;99.90
33994;DHT22;20673;48.980;8.138;2023-06-10T08:27:57;25.50;99.90
33994;DHT22;20673;48.980;8.138;2023-06-10T08:30:24;25.70;99.90
33994;DHT22;20673;48.980;8.138;2023-06-10T08:32:50;25.90;99.90
33994;DHT22;20673;48.980;8.138;2023-06-10T08:35:17;25.90;99.90
33994;DHT22;20673;48.980;8.138;2023-06-10T08:37:43;26.20;99.90
33994;DHT22;20673;48.980;8.138;2023-06-10T08:40:10;26.20;99.90
33994;DHT22;20673;48.980;8.138;2023-06-10T08:42:39;26.20;99.90
33994;DHT22;20673;48.980;8.138;2023-06-10T08:45:12;26.50;99.90
33994;DHT22;20673;48.980;8.138;2023-06-10T08:47:42;26.60;99.90
33994;DHT22;20673;48.980;8.138;2023-06-10T08:50:12;26.70;99.90
33994;DHT22;20673;48.980;8.138;2023-06-10T08:52:41;26.90;99.90
33994;DHT22;20673;48.980;8.138;2023-06-10T08:55:18;27.00;99.90
33994;DHT22;20673;48.980;8.138;2023-06-10T08:57:48;27.20;99.90
33994;DHT22;20673;48.980;8.138;2023-06-10T09:00:15;27.30;99.90
33994;DHT22;20673;48.980;8.138;2023-06-10T09:02:43;27.40;99.90
33994;DHT22;20673;48.980;8.138;2023-06-10T09:05:10;27.50;99.90
33994;DHT22;20673;48.980;8.138;2023-06-10T09:07:36;27.60;99.90
33994;DHT22;20673;48.980;8.138;2023-06-10T09:10:05;27.80;99.90
33994;DHT22;20673;48.980;8.138;2023-06-10T09:12:35;27.80;99.90
33994;DHT22;20673;48.980;8.138;2023-06-10T09:15:04;28.20;99.90
33994;DHT22;20673;48.980;8.138;2023-06-10T09:17:32;28.40;99.90
33994;DHT22;20673;48.980;8.138;2023-06-10T09:19:59;28.30;99.90
33994;DHT22;20673;48.980;8.138;2023-06-10T09:22:28;28.40;99.90
33994;DHT22;20673;48.980;8.138;2023-06-10T09:25:06;28.40;99.90
33994;DHT22;20673;48.980;8.138;2023-06-10T09:27:49;28.40;99.90
33994;DHT22;20673;48.980;8.138;2023-06-10T09:30:24;28.50;99.90
33994;DHT22;20673;48.980;8.138;2023-06-10T09:32:55;28.50;99.90
33994;DHT22;20673;48.980;8.138;2023-06-10T09:35:25;28.50;99.90
33994;DHT22;20673;48.980;8.138;2023-06-10T09:37:58;28.70;99.90
33994;DHT22;20673;48.980;8.138;2023-06-10T09:40:23;29.00;99.90
33994;DHT22;20673;48.980;8.138;2023-06-10T09:42:58;29.00;99.90
33994;DHT22;20673;48.980;8.138;2023-06-10T09:45:32;28.80;99.90
33994;DHT22;20673;48.980;8.138;2023-06-10T09:47:59;29.00;99.90
33994;DHT22;20673;48.980;8.138;2023-06-10T09:50:27;29.30;99.90
33994;DHT22;20673;48.980;8.138;2023-06-10T09:52:54;29.20;99.90
33994;DHT22;20673;48.980;8.138;2023-06-10T09:55:23;29.40;99.90
33994;DHT22;20673;48.980;8.138;2023-06-10T09:57:53;29.60;99.90
33994;DHT22;20673;48.980;8.138;2023-06-10T10:00:22;29.70;99.90
33994;DHT22;20673;48.980;8.138;2023-06-10T10:02:50;29.70;99.90
33994;DHT22;20673;48.980;8.138;2023-06-10T10:05:21;29.80;99.90
33994;DHT22;20673;48.980;8.138;2023-06-10T10:07:47;29.80;99.90
33994;DHT22;20673;48.980;8.138;2023-06-10T10:10:17;30.00;99.90
33994;DHT22;20673;48.980;8.138;2023-06-10T10:12:50;30.10;99.90
33994;DHT22;20673;48.980;8.138;2023-06-10T10:15:16;30.00;99.90
33994;DHT22;20673;48.980;8.138;2023-06-10T10:20:38;30.10;99.90
33994;DHT22;20673;48.980;8.138;2023-06-10T10:23:08;30.10;99.90
33994;DHT22;20673;48.980;8.138;2023-06-10T10:25:40;30.20;99.90
33994;DHT22;20673;48.980;8.138;2023-06-10T10:28:12;30.30;99.90
33994;DHT22;20673;48.980;8.138;2023-06-10T10:30:46;30.60;99.90
33994;DHT22;20673;48.980;8.138;2023-06-10T10:33:20;30.80;99.90
33994;DHT22;20673;48.980;8.138;2023-06-10T10:35:50;30.70;99.90
33994;DHT22;20673;48.980;8.138;2023-06-10T10:38:17;31.00;99.90
33994;DHT22;20673;48.980;8.138;2023-06-10T10:40:44;31.10;99.90
33994;DHT22;20673;48.980;8.138;2023-06-10T10:43:13;30.90;99.90
33994;DHT22;20673;48.980;8.138;2023-06-10T10:45:40;31.00;99.90
33994;DHT22;20673;48.980;8.138;2023-06-10T10:48:09;31.20;99.90
33994;DHT22;20673;48.980;8.138;2023-06-10T10:50:38;31.50;99.90
33994;DHT22;20673;48.980;8.138;2023-06-10T10:53:05;31.90;99.90
33994;DHT22;20673;48.980;8.138;2023-06-10T10:55:32;31.70;99.90
33994;DHT22;20673;48.980;8.138;2023-06-10T10:58:02;32.00;99.90
33994;DHT22;20673;48.980;8.138;2023-06-10T11:00:42;32.40;99.90
33994;DHT22;20673;48.980;8.138;2023-06-10T11:03:16;32.30;98.70
33994;DHT22;20673;48.980;8.138;2023-06-10T11:05:47;32.20;97.70
33994;DHT22;20673;48.980;8.138;2023-06-10T11:08:14;32.00;98.10
33994;DHT22;20673;48.980;8.138;2023-06-10T11:11:00;31.90;96.70
33994;DHT22;20673;48.980;8.138;2023-06-10T11:13:28;31.40;97.40
33994;DHT22;20673;48.980;8.138;2023-06-10T11:15:58;31.20;97.20
33994;DHT22;20673;48.980;8.138;2023-06-10T11:21:02;31.90;98.00
33994;DHT22;20673;48.980;8.138;2023-06-10T11:23:33;31.80;95.40
33994;DHT22;20673;48.980;8.138;2023-06-10T11:31:31;31.80;95.50
33994;DHT22;20673;48.980;8.138;2023-06-10T11:34:06;32.00;93.40
33994;DHT22;20673;48.980;8.138;2023-06-10T11:36:39;32.00;93.10
33994;DHT22;20673;48.980;8.138;2023-06-10T11:39:11;32.10;91.30
33994;DHT22;20673;48.980;8.138;2023-06-10T11:41:39;32.10;91.40
33994;DHT22;20673;48.980;8.138;2023-06-10T11:44:10;32.00;92.90
33994;DHT22;20673;48.980;8.138;2023-06-10T11:46:38;32.40;94.30
33994;DHT22;20673;48.980;8.138;2023-06-10T11:49:06;32.60;90.70
33994;DHT22;20673;48.980;8.138;2023-06-10T11:51:35;32.80;90.60
33994;DHT22;20673;48.980;8.138;2023-06-10T11:54:03;33.10;87.00
33994;DHT22;20673;48.980;8.138;2023-06-10T11:56:31;33.20;91.80
33994;DHT22;20673;48.980;8.138;2023-06-10T11:59:03;32.80;89.40
33994;DHT22;20673;48.980;8.138;2023-06-10T12:01:40;32.00;90.70
33994;DHT22;20673;48.980;8.138;2023-06-10T12:04:11;32.00;90.90
33994;DHT22;20673;48.980;8.138;2023-06-10T12:06:47;32.90;89.10
33994;DHT22;20673;48.980;8.138;2023-06-10T12:09:18;32.70;87.40
33994;DHT22;20673;48.980;8.138;2023-06-10T12:12:02;32.90;85.10
33994;DHT22;20673;48.980;8.138;2023-06-10T12:14:59;33.20;90.20
33994;DHT22;20673;48.980;8.138;2023-06-10T12:20:05;33.50;84.00
33994;DHT22;20673;48.980;8.138;2023-06-10T12:22:43;33.60;81.00
33994;DHT22;20673;48.980;8.138;2023-06-10T12:25:11;33.70;82.40
33994;DHT22;20673;48.980;8.138;2023-06-10T12:27:38;34.00;79.60
33994;DHT22;20673;48.980;8.138;2023-06-10T12:30:07;34.40;79.00
33994;DHT22;20673;48.980;8.138;2023-06-10T12:32:41;34.70;74.50
33994;DHT22;20673;48.980;8.138;2023-06-10T12:35:10;33.70;74.80
33994;DHT22;20673;48.980;8.138;2023-06-10T12:37:40;33.90;76.80
33994;DHT22;20673;48.980;8.138;2023-06-10T12:40:07;34.20;74.80
33994;DHT22;20673;48.980;8.138;2023-06-10T12:42:35;34.00;73.70
33994;DHT22;20673;48.980;8.138;2023-06-10T12:45:03;33.80;69.60
33994;DHT22;20673;48.980;8.138;2023-06-10T12:47:35;34.10;69.60
33994;DHT22;20673;48.980;8.138;2023-06-10T12:50:04;34.20;67.90
33994;DHT22;20673;48.980;8.138;2023-06-10T12:52:31;34.20;68.90
33994;DHT22;20673;48.980;8.138;2023-06-10T12:54:58;34.10;65.40
33994;DHT22;20673;48.980;8.138;2023-06-10T12:57:26;34.20;67.50
33994;DHT22;20673;48.980;8.138;2023-06-10T12:59:53;34.60;65.00
33994;DHT22;20673;48.980;8.138;2023-06-10T13:02:20;34.80;65.50
33994;DHT22;20673;48.980;8.138;2023-06-10T13:04:50;35.00;62.80
33994;DHT22;20673;48.980;8.138;2023-06-10T13:07:19;34.70;59.90
33994;DHT22;20673;48.980;8.138;2023-06-10T13:09:45;34.20;66.40
33994;DHT22;20673;48.980;8.138;2023-06-10T13:12:13;34.30;63.00
33994;DHT22;20673;48.980;8.138;2023-06-10T13:14:39;34.70;61.60
33994;DHT22;20673;48.980;8.138;2023-06-10T13:17:05;34.80;59.20
33994;DHT22;20673;48.980;8.138;2023-06-10T13:19:33;34.00;58.10
33994;DHT22;20673;48.980;8.138;2023-06-10T13:21:59;33.90;60.10
33994;DHT22;20673;48.980;8.138;2023-06-10T13:24:28;33.90;61.30
33994;DHT22;20673;48.980;8.138;2023-06-10T13:26:55;33.40;59.50
33994;DHT22;20673;48.980;8.138;2023-06-10T13:29:22;33.40;63.60
33994;DHT22;20673;48.980;8.138;2023-06-10T13:31:48;33.70;61.10
33994;DHT22;20673;48.980;8.138;2023-06-10T13:34:14;33.80;60.10
33994;DHT22;20673;48.980;8.138;2023-06-10T13:36:41;34.10;63.80
33994;DHT22;20673;48.980;8.138;2023-06-10T13:39:07;34.70;57.90
33994;DHT22;20673;48.980;8.138;2023-06-10T13:41:34;34.80;56.80
33994;DHT22;20673;48.980;8.138;2023-06-10T13:44:01;34.90;57.90
33994;DHT22;20673;48.980;8.138;2023-06-10T13:46:27;34.70;56.40
33994;DHT22;20673;48.980;8.138;2023-06-10T13:48:53;34.50;55.50
33994;DHT22;20673;48.980;8.138;2023-06-10T13:51:19;34.10;54.70
33994;DHT22;20673;48.980;8.138;2023-06-10T13:53:45;33.90;55.60
33994;DHT22;20673;48.980;8.138;2023-06-10T13:56:12;34.10;55.60
33994;DHT22;20673;48.980;8.138;2023-06-10T13:58:38;34.30;55.60
33994;DHT22;20673;48.980;8.138;2023-06-10T14:01:06;34.60;54.60
33994;DHT22;20673;48.980;8.138;2023-06-10T14:03:33;34.70;57.90
33994;DHT22;20673;48.980;8.138;2023-06-10T14:05:59;35.00;54.20
33994;DHT22;20673;48.980;8.138;2023-06-10T14:08:26;35.00;54.80
33994;DHT22;20673;48.980;8.138;2023-06-10T14:10:52;35.10;51.50
33994;DHT22;20673;48.980;8.138;2023-06-10T14:13:18;35.30;54.80
33994;DHT22;20673;48.980;8.138;2023-06-10T14:15:45;35.50;52.80
33994;DHT22;20673;48.980;8.138;2023-06-10T14:18:11;35.70;51.20
33994;DHT22;20673;48.980;8.138;2023-06-10T14:20:37;35.00;51.30
33994;DHT22;20673;48.980;8.138;2023-06-10T14:23:04;34.90;51.40
33994;DHT22;20673;48.980;8.138;2023-06-10T14:25:30;35.10;52.80
33994;DHT22;20673;48.980;8.138;2023-06-10T14:27:57;35.20;50.60
33994;DHT22;20673;48.980;8.138;2023-06-10T14:30:25;35.30;50.20
33994;DHT22;20673;48.980;8.138;2023-06-10T14:32:51;35.50;51.50
33994;DHT22;20673;48.980;8.138;2023-06-10T14:35:17;35.00;50.70
33994;DHT22;20673;48.980;8.138;2023-06-10T14:37:47;34.60;49.10
33994;DHT22;20673;48.980;8.138;2023-06-10T14:40:13;34.80;49.60
33994;DHT22;20673;48.980;8.138;2023-06-10T14:42:40;34.60;50.40
33994;DHT22;20673;48.980;8.138;2023-06-10T14:45:08;34.50;50.40
33994;DHT22;20673;48.980;8.138;2023-06-10T14:47:36;34.60;51.10
33994;DHT22;20673;48.980;8.138;2023-06-10T14:50:06;34.80;52.10
33994;DHT22;20673;48.980;8.138;2023-06-10T14:52:33;34.80;51.30
33994;DHT22;20673;48.980;8.138;2023-06-10T14:55:03;34.70;50.50
33994;DHT22;20673;48.980;8.138;2023-06-10T14:57:31;34.60;53.50
33994;DHT22;20673;48.980;8.138;2023-06-10T14:59:58;34.70;50.50
33994;DHT22;20673;48.980;8.138;2023-06-10T15:02:24;34.50;48.30
33994;DHT22;20673;48.980;8.138;2023-06-10T15:04:54;34.60;50.50
33994;DHT22;20673;48.980;8.138;2023-06-10T15:07:21;34.80;49.00
33994;DHT22;20673;48.980;8.138;2023-06-10T15:09:47;35.10;50.40
33994;DHT22;20673;48.980;8.138;2023-06-10T15:12:14;34.90;49.30
33994;DHT22;20673;48.980;8.138;2023-06-10T15:14:40;34.90;50.40
33994;DHT22;20673;48.980;8.138;2023-06-10T15:17:07;35.00;48.20
33994;DHT22;20673;48.980;8.138;2023-06-10T15:19:33;34.90;49.80
33994;DHT22;20673;48.980;8.138;2023-06-10T15:22:00;34.70;50.00
33994;DHT22;20673;48.980;8.138;2023-06-10T15:24:27;34.90;49.90
33994;DHT22;20673;48.980;8.138;2023-06-10T15:26:53;34.50;48.00
33994;DHT22;20673;48.980;8.138;2023-06-10T15:29:20;34.50;48.30
33994;DHT22;20673;48.980;8.138;2023-06-10T15:31:47;34.30;48.50
33994;DHT22;20673;48.980;8.138;2023-06-10T15:34:19;34.50;47.10
33994;DHT22;20673;48.980;8.138;2023-06-10T15:36:47;34.50;47.20
33994;DHT22;20673;48.980;8.138;2023-06-10T15:39:14;34.30;48.00
33994;DHT22;20673;48.980;8.138;2023-06-10T15:41:41;34.00;48.00
33994;DHT22;20673;48.980;8.138;2023-06-10T15:44:07;34.00;47.20
33994;DHT22;20673;48.980;8.138;2023-06-10T15:46:37;33.80;49.00
33994;DHT22;20673;48.980;8.138;2023-06-10T15:49:04;33.90;48.20